sensor_id;sensor_type;location;lat;lon;timestamp;pressure;altitude;pressure_sealevel;temperature;humidity
68628;BME280;55611;48.602;9.490;2023-06-24T00:02:27;97760;;;19.5;52.5
68628;BME280;55611;48.602;9.490;2023-06-24T00:04:58;97760;;;19.5;52.5
68628;BME280;55611;48.602;9.490;2023-06-24T00:07:28;97760;;;19.4;52.5
68628;BME280;55611;48.602;9.490;2023-06-24T00:09:59;97760;;;19.4;52.5
68628;BME280;55611;48.602;9.490;2023-06-24T00:12:30;97770;;;19.4;52.5
68628;BME280;55611;48.602;9.490;2023-06-24T00:15:01;97770;;;19.4;52.5
68628;BME280;55611;48.602;9.490;2023-06-24T00:17:31;97770;;;19.4;52.5
68628;BME280;55611;48.602;9.490;2023-06-24T00:20:02;97770;;;19.4;52.5
68628;BME280;55611;48.602;9.490;2023-06-24T00:22:33;97770;;;19.5;52.5
68628;BME280;55611;48.602;9.490;2023-06-24T00:25:04;97770;;;19.6;52.5
68628;BME280;55611;48.602;9.490;2023-06-24T00:27:35;97770;;;19.7;52.5
68628;BME280;55611;48.602;9.490;2023-06-24T00:30:05;97770;;;19.7;52.5
68628;BME280;55611;48.602;9.490;2023-06-24T00:32:36;97780;;;19.8;52.5
68628;BME280;55611;48.602;9.490;2023-06-24T00:35:07;97780;;;19.7;52.5
68628;BME280;55611;48.602;9.490;2023-06-24T00:37:38;97780;;;19.7;52.5
68628;BME280;55611;48.602;9.490;2023-06-24T00:40:08;97780;;;19.7;52.5
68628;BME280;55611;48.602;9.490;2023-06-24T00:42:39;97780;;;19.6;52.5
68628;BME280;55611;48.602;9.490;2023-06-24T00:45:10;97780;;;19.5;52.5
68628;BME280;55611;48.602;9.490;2023-06-24T00:47:41;97780;;;19.3;52.5
68628;BME280;55611;48.602;9.490;2023-06-24T00:50:12;97780;;;19.2;52.5
68628;BME280;55611;48.602;9.490;2023-06-24T00:52:42;97780;;;19.2;52.5
68628;BME280;55611;48.602;9.490;2023-06-24T00:55:14;97780;;;19.1;52.5
68628;BME280;55611;48.602;9.490;2023-06-24T00:57:44;97780;;;19.1;52.5
68628;BME280;55611;48.602;9.490;2023-06-24T01:00:15;97780;;;19.1;52.5
68628;BME280;55611;48.602;9.490;2023-06-24T01:02:47;97770;;;19.1;52.5
68628;BME280;55611;48.602;9.490;2023-06-24T01:05:16;97770;;;19.1;52.5
68628;BME280;55611;48.602;9.490;2023-06-24T01:07:47;97770;;;19.1;53
68628;BME280;55611;48.602;9.490;2023-06-24T01:10:18;97770;;;19.1;53
68628;BME280;55611;48.602;9.490;2023-06-24T01:12:49;97770;;;19;53
68628;BME280;55611;48.602;9.490;2023-06-24T01:15:19;97780;;;19;53
68628;BME280;55611;48.602;9.490;2023-06-24T01:18:55;97780;;;19;53
68628;BME280;55611;48.602;9.490;2023-06-24T01:20:24;97780;;;19;53
68628;BME280;55611;48.602;9.490;2023-06-24T01:25:33;97770;;;18.9;53
68628;BME280;55611;48.602;9.490;2023-06-24T01:28:00;97760;;;18.8;53
68628;BME280;55611;48.602;9.490;2023-06-24T01:30:29;97770;;;18.8;53
68628;BME280;55611;48.602;9.490;2023-06-24T01:32:56;97770;;;18.8;53
68628;BME280;55611;48.602;9.490;2023-06-24T01:35:28;97770;;;18.7;53
68628;BME280;55611;48.602;9.490;2023-06-24T01:37:56;97760;;;18.6;53
68628;BME280;55611;48.602;9.490;2023-06-24T01:40:31;97760;;;18.6;53
68628;BME280;55611;48.602;9.490;2023-06-24T01:42:58;97760;;;18.5;53
68628;BME280;55611;48.602;9.490;2023-06-24T01:45:31;97750;;;18.5;53
68628;BME280;55611;48.602;9.490;2023-06-24T01:48:00;97750;;;18.5;53
68628;BME280;55611;48.602;9.490;2023-06-24T01:50:31;97740;;;18.6;53
68628;BME280;55611;48.602;9.490;2023-06-24T01:53:03;97750;;;18.6;53
68628;BME280;55611;48.602;9.490;2023-06-24T01:55:32;97750;;;18.6;53
68628;BME280;55611;48.602;9.490;2023-06-24T01:58:03;97740;;;18.7;53
68628;BME280;55611;48.602;9.490;2023-06-24T02:00:33;97740;;;18.7;53
68628;BME280;55611;48.602;9.490;2023-06-24T02:03:04;97740;;;18.7;53
68628;BME280;55611;48.602;9.490;2023-06-24T02:05:35;97740;;;18.6;53
68628;BME280;55611;48.602;9.490;2023-06-24T02:08:07;97740;;;18.6;53
68628;BME280;55611;48.602;9.490;2023-06-24T02:10:37;97740;;;18.6;53
68628;BME280;55611;48.602;9.490;2023-06-24T02:13:07;97740;;;18.6;53
68628;BME280;55611;48.602;9.490;2023-06-24T02:15:38;97740;;;18.6;53
68628;BME280;55611;48.602;9.490;2023-06-24T02:18:09;97740;;;18.6;53
68628;BME280;55611;48.602;9.490;2023-06-24T02:20:39;97740;;;18.6;53
68628;BME280;55611;48.602;9.490;2023-06-24T02:23:10;97740;;;18.6;53
68628;BME280;55611;48.602;9.490;2023-06-24T02:25:42;97730;;;18.6;53
68628;BME280;55611;48.602;9.490;2023-06-24T02:28:12;97730;;;18.5;53
68628;BME280;55611;48.602;9.490;2023-06-24T02:30:43;97740;;;18.5;53
68628;BME280;55611;48.602;9.490;2023-06-24T02:33:13;97740;;;18.4;53
68628;BME280;55611;48.602;9.490;2023-06-24T02:35:44;97750;;;18.4;53
68628;BME280;55611;48.602;9.490;2023-06-24T02:38:15;97740;;;18.4;53
68628;BME280;55611;48.602;9.490;2023-06-24T02:40:46;97740;;;18.3;53
68628;BME280;55611;48.602;9.490;2023-06-24T02:43:16;97740;;;18.3;53
68628;BME280;55611;48.602;9.490;2023-06-24T02:45:47;97740;;;18.2;53
68628;BME280;55611;48.602;9.490;2023-06-24T02:48:18;97730;;;18.2;53
68628;BME280;55611;48.602;9.490;2023-06-24T02:50:49;97730;;;18.2;53
68628;BME280;55611;48.602;9.490;2023-06-24T02:53:19;97730;;;18.2;53
68628;BME280;55611;48.602;9.490;2023-06-24T02:55:50;97740;;;18.2;53.5
68628;BME280;55611;48.602;9.490;2023-06-24T02:58:21;97740;;;18.3;53.5
68628;BME280;55611;48.602;9.490;2023-06-24T03:00:52;97740;;;18.4;53.5
68628;BME280;55611;48.602;9.490;2023-06-24T03:03:23;97740;;;18.5;53.5
68628;BME280;55611;48.602;9.490;2023-06-24T03:05:54;97740;;;18.6;53.5
68628;BME280;55611;48.602;9.490;2023-06-24T03:08:24;97750;;;18.6;53.5
68628;BME280;55611;48.602;9.490;2023-06-24T03:10:55;97750;;;18.6;53.5
68628;BME280;55611;48.602;9.490;2023-06-24T03:13:26;97750;;;18.7;53.5
68628;BME280;55611;48.602;9.490;2023-06-24T03:15:56;97750;;;18.7;53
68628;BME280;55611;48.602;9.490;2023-06-24T03:18:27;97760;;;18.6;53
68628;BME280;55611;48.602;9.490;2023-06-24T03:20:58;97760;;;18.5;53.5
68628;BME280;55611;48.602;9.490;2023-06-24T03:23:29;97760;;;18.6;53.5
68628;BME280;55611;48.602;9.490;2023-06-24T03:26:00;97750;;;18.6;53.5
68628;BME280;55611;48.602;9.490;2023-06-24T03:28:30;97750;;;18.6;53.5
68628;BME280;55611;48.602;9.490;2023-06-24T03:31:01;97760;;;18.6;53.5
68628;BME280;55611;48.602;9.490;2023-06-24T03:33:32;97760;;;18.6;53.5
68628;BME280;55611;48.602;9.490;2023-06-24T03:36:03;97750;;;18.6;53.5
68628;BME280;55611;48.602;9.490;2023-06-24T03:38:33;97760;;;18.7;53.5
68628;BME280;55611;48.602;9.490;2023-06-24T03:41:04;97760;;;18.8;53.5
68628;BME280;55611;48.602;9.490;2023-06-24T03:43:35;97760;;;18.8;53.5
68628;BME280;55611;48.602;9.490;2023-06-24T03:46:06;97770;;;18.7;53.5
68628;BME280;55611;48.602;9.490;2023-06-24T03:48:37;97770;;;18.7;53.5
68628;BME280;55611;48.602;9.490;2023-06-24T03:51:07;97770;;;18.6;53.5
68628;BME280;55611;48.602;9.490;2023-06-24T03:53:38;97780;;;18.6;53.5
68628;BME280;55611;48.602;9.490;2023-06-24T03:56:09;97790;;;18.6;53.5
68628;BME280;55611;48.602;9.490;2023-06-24T03:58:40;97790;;;18.4;53.5
68628;BME280;55611;48.602;9.490;2023-06-24T04:01:10;97790;;;18.4;53.5
68628;BME280;55611;48.602;9.490;2023-06-24T04:03:41;97790;;;18.3;53.5
68628;BME280;55611;48.602;9.490;2023-06-24T04:06:12;97790;;;18.3;53.5
68628;BME280;55611;48.602;9.490;2023-06-24T04:08:43;97790;;;18.4;53.5
68628;BME280;55611;48.602;9.490;2023-06-24T04:11:14;97800;;;18.6;53.5
68628;BME280;55611;48.602;9.490;2023-06-24T04:13:45;97800;;;18.8;53
68628;BME280;55611;48.602;9.490;2023-06-24T04:16:15;97810;;;19;53
68628;BME280;55611;48.602;9.490;2023-06-24T04:18:46;97810;;;19.3;53
68628;BME280;55611;48.602;9.490;2023-06-24T04:21:17;97810;;;19.5;53
68628;BME280;55611;48.602;9.490;2023-06-24T04:23:47;97810;;;19.7;52.5
68628;BME280;55611;48.602;9.490;2023-06-24T04:26:18;97810;;;19.8;52.5
68628;BME280;55611;48.602;9.490;2023-06-24T04:28:49;97810;;;20;52.5
68628;BME280;55611;48.602;9.490;2023-06-24T04:31:20;97820;;;20.1;52.5
68628;BME280;55611;48.602;9.490;2023-06-24T04:36:21;97820;;;20.2;52.5
68628;BME280;55611;48.602;9.490;2023-06-24T04:38:52;97820;;;20.2;52.5
68628;BME280;55611;48.602;9.490;2023-06-24T04:41:23;97810;;;20.1;52.5
68628;BME280;55611;48.602;9.490;2023-06-24T04:43:54;97820;;;20.1;52.5
68628;BME280;55611;48.602;9.490;2023-06-24T04:46:24;97830;;;20.1;52.5
68628;BME280;55611;48.602;9.490;2023-06-24T04:48:55;97830;;;20.1;52.5
68628;BME280;55611;48.602;9.490;2023-06-24T04:51:26;97830;;;20.2;52.5
68628;BME280;55611;48.602;9.490;2023-06-24T04:53:57;97840;;;20;52.5
68628;BME280;55611;48.602;9.490;2023-06-24T04:56:27;97840;;;20;52.5
68628;BME280;55611;48.602;9.490;2023-06-24T04:58:58;97830;;;20.1;52.5
68628;BME280;55611;48.602;9.490;2023-06-24T05:01:29;97830;;;20.3;52.5
68628;BME280;55611;48.602;9.490;2023-06-24T05:04:00;97830;;;20.4;52.5
68628;BME280;55611;48.602;9.490;2023-06-24T05:06:31;97830;;;20.6;52.5
68628;BME280;55611;48.602;9.490;2023-06-24T05:09:01;97830;;;20.9;52.5
68628;BME280;55611;48.602;9.490;2023-06-24T05:11:32;97830;;;21;52.5
68628;BME280;55611;48.602;9.490;2023-06-24T05:14:03;97830;;;21.2;52.5
68628;BME280;55611;48.602;9.490;2023-06-24T05:16:34;97830;;;21.3;52.5
68628;BME280;55611;48.602;9.490;2023-06-24T05:19:04;97830;;;21.3;52.5
68628;BME280;55611;48.602;9.490;2023-06-24T05:21:35;97840;;;21.4;52.5
68628;BME280;55611;48.602;9.490;2023-06-24T05:24:06;97840;;;21.4;52.5
68628;BME280;55611;48.602;9.490;2023-06-24T05:26:37;97840;;;21.3;52.5
68628;BME280;55611;48.602;9.490;2023-06-24T05:29:08;97840;;;21.3;52.5
68628;BME280;55611;48.602;9.490;2023-06-24T05:31:39;97840;;;21.3;52.5
68628;BME280;55611;48.602;9.490;2023-06-24T05:34:09;97830;;;21.2;52.5
68628;BME280;55611;48.602;9.490;2023-06-24T05:36:40;97830;;;21.3;52.5
68628;BME280;55611;48.602;9.490;2023-06-24T05:39:11;97830;;;21.3;52.5
68628;BME280;55611;48.602;9.490;2023-06-24T05:41:41;97830;;;21.5;52.5
68628;BME280;55611;48.602;9.490;2023-06-24T05:46:44;97830;;;21.6;52.5
68628;BME280;55611;48.602;9.490;2023-06-24T05:49:14;97840;;;21.6;52.5
68628;BME280;55611;48.602;9.490;2023-06-24T05:51:45;97840;;;21.6;52.5
68628;BME280;55611;48.602;9.490;2023-06-24T05:54:15;97830;;;21.5;52.5
68628;BME280;55611;48.602;9.490;2023-06-24T05:56:46;97830;;;21.6;52.5
68628;BME280;55611;48.602;9.490;2023-06-24T05:59:17;97830;;;21.7;52.5
68628;BME280;55611;48.602;9.490;2023-06-24T06:01:48;97830;;;21.8;52.5
68628;BME280;55611;48.602;9.490;2023-06-24T06:04:18;97830;;;21.9;52.5
68628;BME280;55611;48.602;9.490;2023-06-24T06:06:49;97830;;;22;52.5
68628;BME280;55611;48.602;9.490;2023-06-24T06:09:21;97840;;;22.1;52.5
68628;BME280;55611;48.602;9.490;2023-06-24T06:11:51;97830;;;22.1;52.5
68628;BME280;55611;48.602;9.490;2023-06-24T06:14:21;97830;;;22.2;52
68628;BME280;55611;48.602;9.490;2023-06-24T06:16:52;97830;;;22.4;52
68628;BME280;55611;48.602;9.490;2023-06-24T06:19:23;97830;;;22.2;52
68628;BME280;55611;48.602;9.490;2023-06-24T06:21:54;97830;;;22.1;52
68628;BME280;55611;48.602;9.490;2023-06-24T06:24:25;97840;;;22.1;52.5
68628;BME280;55611;48.602;9.490;2023-06-24T06:26:57;97830;;;22.1;52.5
68628;BME280;55611;48.602;9.490;2023-06-24T06:29:26;97830;;;22.2;52.5
68628;BME280;55611;48.602;9.490;2023-06-24T06:31:57;97830;;;22.1;52.5
68628;BME280;55611;48.602;9.490;2023-06-24T06:34:28;97820;;;22.2;52
68628;BME280;55611;48.602;9.490;2023-06-24T06:36:59;97820;;;22.3;52
68628;BME280;55611;48.602;9.490;2023-06-24T06:39:29;97830;;;22.4;52.5
68628;BME280;55611;48.602;9.490;2023-06-24T06:42:00;97820;;;22.4;52
68628;BME280;55611;48.602;9.490;2023-06-24T06:44:31;97820;;;22.5;52
68628;BME280;55611;48.602;9.490;2023-06-24T06:47:02;97830;;;22.5;52
68628;BME280;55611;48.602;9.490;2023-06-24T06:49:32;97820;;;22.5;52
68628;BME280;55611;48.602;9.490;2023-06-24T06:52:03;97830;;;22.6;52
68628;BME280;55611;48.602;9.490;2023-06-24T06:54:34;97820;;;22.7;52
68628;BME280;55611;48.602;9.490;2023-06-24T06:57:05;97820;;;22.8;52
68628;BME280;55611;48.602;9.490;2023-06-24T06:59:35;97820;;;22.8;52
68628;BME280;55611;48.602;9.490;2023-06-24T07:02:06;97820;;;22.9;52
68628;BME280;55611;48.602;9.490;2023-06-24T07:04:37;97820;;;23;52
68628;BME280;55611;48.602;9.490;2023-06-24T07:07:08;97820;;;23;52
68628;BME280;55611;48.602;9.490;2023-06-24T07:09:38;97830;;;23.1;52
68628;BME280;55611;48.602;9.490;2023-06-24T07:12:09;97820;;;23.1;52
68628;BME280;55611;48.602;9.490;2023-06-24T07:14:40;97820;;;23.2;52
68628;BME280;55611;48.602;9.490;2023-06-24T07:17:11;97820;;;23.3;52
68628;BME280;55611;48.602;9.490;2023-06-24T07:19:42;97820;;;23.4;52
68628;BME280;55611;48.602;9.490;2023-06-24T07:22:13;97830;;;23.4;52
68628;BME280;55611;48.602;9.490;2023-06-24T07:24:43;97820;;;23.5;51.5
68628;BME280;55611;48.602;9.490;2023-06-24T07:27:14;97820;;;23.6;51.5
68628;BME280;55611;48.602;9.490;2023-06-24T07:29:45;97820;;;23.7;51.5
68628;BME280;55611;48.602;9.490;2023-06-24T07:32:15;97820;;;23.8;51.5
68628;BME280;55611;48.602;9.490;2023-06-24T07:34:46;97810;;;23.8;51.5
68628;BME280;55611;48.602;9.490;2023-06-24T07:37:17;97820;;;23.9;51.5
68628;BME280;55611;48.602;9.490;2023-06-24T07:39:48;97820;;;23.9;51.5
68628;BME280;55611;48.602;9.490;2023-06-24T07:42:19;97810;;;24;51.5
68628;BME280;55611;48.602;9.490;2023-06-24T07:44:49;97820;;;24;51.5
68628;BME280;55611;48.602;9.490;2023-06-24T07:47:20;97820;;;24.1;51.5
68628;BME280;55611;48.602;9.490;2023-06-24T07:49:51;97820;;;24.2;51.5
68628;BME280;55611;48.602;9.490;2023-06-24T07:52:22;97810;;;24.3;51.5
68628;BME280;55611;48.602;9.490;2023-06-24T07:54:52;97820;;;24.3;51.5
68628;BME280;55611;48.602;9.490;2023-06-24T07:57:23;97820;;;24.3;51.5
68628;BME280;55611;48.602;9.490;2023-06-24T07:59:54;97810;;;24.4;51.5
68628;BME280;55611;48.602;9.490;2023-06-24T08:04:56;97810;;;24.5;51.5
68628;BME280;55611;48.602;9.490;2023-06-24T08:07:26;97810;;;24.6;51.5
68628;BME280;55611;48.602;9.490;2023-06-24T08:09:57;97810;;;24.7;51.5
68628;BME280;55611;48.602;9.490;2023-06-24T08:12:28;97810;;;24.8;51.5
68628;BME280;55611;48.602;9.490;2023-06-24T08:14:59;97810;;;24.8;51.5
68628;BME280;55611;48.602;9.490;2023-06-24T08:17:29;97810;;;24.9;51.5
68628;BME280;55611;48.602;9.490;2023-06-24T08:20:01;97800;;;25;51
68628;BME280;55611;48.602;9.490;2023-06-24T08:22:31;97800;;;25;51
68628;BME280;55611;48.602;9.490;2023-06-24T08:25:02;97800;;;25.1;51
68628;BME280;55611;48.602;9.490;2023-06-24T08:27:32;97800;;;25.1;51
68628;BME280;55611;48.602;9.490;2023-06-24T08:30:04;97800;;;25.1;51
68628;BME280;55611;48.602;9.490;2023-06-24T08:32:34;97790;;;25.2;51
68628;BME280;55611;48.602;9.490;2023-06-24T08:35:05;97790;;;25.3;51
68628;BME280;55611;48.602;9.490;2023-06-24T08:37:36;97790;;;25.4;51
68628;BME280;55611;48.602;9.490;2023-06-24T08:40:06;97790;;;25.3;51
68628;BME280;55611;48.602;9.490;2023-06-24T08:42:37;97790;;;25.3;51
68628;BME280;55611;48.602;9.490;2023-06-24T08:45:08;97800;;;25.2;51
68628;BME280;55611;48.602;9.490;2023-06-24T08:47:39;97790;;;25.2;51
68628;BME280;55611;48.602;9.490;2023-06-24T08:50:11;97800;;;25.3;51
68628;BME280;55611;48.602;9.490;2023-06-24T08:52:42;97790;;;25.5;51
68628;BME280;55611;48.602;9.490;2023-06-24T08:55:12;97790;;;25.6;50.5
68628;BME280;55611;48.602;9.490;2023-06-24T08:57:42;97790;;;25.6;50.5
68628;BME280;55611;48.602;9.490;2023-06-24T09:00:13;97790;;;25.6;50.5
68628;BME280;55611;48.602;9.490;2023-06-24T09:02:43;97790;;;25.6;51
68628;BME280;55611;48.602;9.490;2023-06-24T09:05:14;97790;;;25.7;50.5
68628;BME280;55611;48.602;9.490;2023-06-24T09:07:45;97790;;;25.8;50.5
68628;BME280;55611;48.602;9.490;2023-06-24T09:10:47;97780;;;25.8;50.5
68628;BME280;55611;48.602;9.490;2023-06-24T09:12:46;97780;;;25.9;50.5
68628;BME280;55611;48.602;9.490;2023-06-24T09:15:18;97780;;;25.9;50.5
68628;BME280;55611;48.602;9.490;2023-06-24T09:17:48;97780;;;26;50.5
68628;BME280;55611;48.602;9.490;2023-06-24T09:20:19;97780;;;26.2;50.5
68628;BME280;55611;48.602;9.490;2023-06-24T09:22:50;97780;;;26.3;50.5
68628;BME280;55611;48.602;9.490;2023-06-24T09:25:20;97770;;;26.4;50.5
68628;BME280;55611;48.602;9.490;2023-06-24T09:27:51;97770;;;26.4;50.5
68628;BME280;55611;48.602;9.490;2023-06-24T09:30:22;97770;;;26.4;50
68628;BME280;55611;48.602;9.490;2023-06-24T09:32:53;97760;;;26.2;50.5
68628;BME280;55611;48.602;9.490;2023-06-24T09:35:24;97760;;;26.1;50.5
68628;BME280;55611;48.602;9.490;2023-06-24T09:37:55;97760;;;26.1;50.5
68628;BME280;55611;48.602;9.490;2023-06-24T09:40:25;97760;;;26.2;50.5
68628;BME280;55611;48.602;9.490;2023-06-24T09:42:56;97760;;;26.2;50.5
68628;BME280;55611;48.602;9.490;2023-06-24T09:45:27;97760;;;26.3;50.5
68628;BME280;55611;48.602;9.490;2023-06-24T09:47:57;97750;;;26.3;50
68628;BME280;55611;48.602;9.490;2023-06-24T09:50:28;97750;;;26.4;50
68628;BME280;55611;48.602;9.490;2023-06-24T09:52:59;97750;;;26.6;50
68628;BME280;55611;48.602;9.490;2023-06-24T09:55:30;97750;;;26.7;50
68628;BME280;55611;48.602;9.490;2023-06-24T09:58:00;97750;;;26.6;50
68628;BME280;55611;48.602;9.490;2023-06-24T10:00:31;97740;;;26.5;50
68628;BME280;55611;48.602;9.490;2023-06-24T10:03:02;97740;;;26.6;50
68628;BME280;55611;48.602;9.490;2023-06-24T10:05:33;97740;;;26.8;50
68628;BME280;55611;48.602;9.490;2023-06-24T10:08:04;97740;;;26.8;49.5
68628;BME280;55611;48.602;9.490;2023-06-24T10:10:34;97740;;;26.9;49.5
68628;BME280;55611;48.602;9.490;2023-06-24T10:13:05;97730;;;27;49.5
68628;BME280;55611;48.602;9.490;2023-06-24T10:15:36;97730;;;27;49.5
68628;BME280;55611;48.602;9.490;2023-06-24T10:18:31;97730;;;27.1;49.5
68628;BME280;55611;48.602;9.490;2023-06-24T10:20:37;97720;;;27.1;49.5
68628;BME280;55611;48.602;9.490;2023-06-24T10:23:08;97720;;;27.1;49.5
68628;BME280;55611;48.602;9.490;2023-06-24T10:25:39;97720;;;27;49.5
68628;BME280;55611;48.602;9.490;2023-06-24T10:28:10;97720;;;27;49.5
68628;BME280;55611;48.602;9.490;2023-06-24T10:30:44;97730;;;27.1;49.5
68628;BME280;55611;48.602;9.490;2023-06-24T10:33:11;97720;;;27;49.5
68628;BME280;55611;48.602;9.490;2023-06-24T10:35:42;97710;;;27;49.5
68628;BME280;55611;48.602;9.490;2023-06-24T10:38:13;97710;;;27.2;49
68628;BME280;55611;48.602;9.490;2023-06-24T10:40:44;97710;;;27.2;49
68628;BME280;55611;48.602;9.490;2023-06-24T10:43:29;97710;;;27.1;49.5
68628;BME280;55611;48.602;9.490;2023-06-24T10:45:53;97700;;;27.1;49.5
68628;BME280;55611;48.602;9.490;2023-06-24T10:48:17;97700;;;26.9;49.5
68628;BME280;55611;48.602;9.490;2023-06-24T10:50:47;97700;;;26.9;49.5
68628;BME280;55611;48.602;9.490;2023-06-24T10:53:18;97710;;;27;49.5
68628;BME280;55611;48.602;9.490;2023-06-24T10:55:48;97690;;;27.2;49.5
68628;BME280;55611;48.602;9.490;2023-06-24T10:58:19;97690;;;27.2;49
68628;BME280;55611;48.602;9.490;2023-06-24T11:00:50;97680;;;27.2;49
68628;BME280;55611;48.602;9.490;2023-06-24T11:03:20;97680;;;27.2;49
68628;BME280;55611;48.602;9.490;2023-06-24T11:05:51;97680;;;27.1;49
68628;BME280;55611;48.602;9.490;2023-06-24T11:08:22;97680;;;27;49
68628;BME280;55611;48.602;9.490;2023-06-24T11:10:53;97680;;;26.8;49
68628;BME280;55611;48.602;9.490;2023-06-24T11:13:24;97670;;;26.6;49
68628;BME280;55611;48.602;9.490;2023-06-24T11:15:54;97670;;;26.6;49
68628;BME280;55611;48.602;9.490;2023-06-24T11:18:25;97670;;;26.9;49
68628;BME280;55611;48.602;9.490;2023-06-24T11:20:56;97670;;;27.1;49
68628;BME280;55611;48.602;9.490;2023-06-24T11:23:27;97670;;;27.3;49
68628;BME280;55611;48.602;9.490;2023-06-24T11:25:57;97660;;;27.3;49
68628;BME280;55611;48.602;9.490;2023-06-24T11:28:30;97660;;;27.2;48.5
68628;BME280;55611;48.602;9.490;2023-06-24T11:31:06;97660;;;27.3;48.5
68628;BME280;55611;48.602;9.490;2023-06-24T11:33:30;97660;;;27.3;48.5
68628;BME280;55611;48.602;9.490;2023-06-24T11:36:01;97650;;;27.5;48.5
68628;BME280;55611;48.602;9.490;2023-06-24T11:38:31;97650;;;27.4;48.5
68628;BME280;55611;48.602;9.490;2023-06-24T11:41:02;97650;;;27.4;48.5
68628;BME280;55611;48.602;9.490;2023-06-24T11:43:33;97640;;;27.5;48.5
68628;BME280;55611;48.602;9.490;2023-06-24T11:46:04;97640;;;27.6;48.5
68628;BME280;55611;48.602;9.490;2023-06-24T11:48:42;97640;;;27.8;48.5
68628;BME280;55611;48.602;9.490;2023-06-24T11:51:11;97640;;;27.8;48.5
68628;BME280;55611;48.602;9.490;2023-06-24T11:53:43;97630;;;27.7;48.5
68628;BME280;55611;48.602;9.490;2023-06-24T11:58:38;97630;;;27.4;48
68628;BME280;55611;48.602;9.490;2023-06-24T12:01:08;97620;;;27.3;48
68628;BME280;55611;48.602;9.490;2023-06-24T12:03:40;97620;;;27.3;48
68628;BME280;55611;48.602;9.490;2023-06-24T12:06:10;97610;;;27.3;48
68628;BME280;55611;48.602;9.490;2023-06-24T12:08:41;97610;;;27.4;48
68628;BME280;55611;48.602;9.490;2023-06-24T12:11:11;97610;;;27.6;48.5
68628;BME280;55611;48.602;9.490;2023-06-24T12:13:42;97610;;;27.8;48
68628;BME280;55611;48.602;9.490;2023-06-24T12:16:13;97600;;;27.8;48
68628;BME280;55611;48.602;9.490;2023-06-24T12:18:44;97600;;;27.8;48
68628;BME280;55611;48.602;9.490;2023-06-24T12:21:15;97590;;;27.8;48
68628;BME280;55611;48.602;9.490;2023-06-24T12:23:45;97590;;;27.9;48
68628;BME280;55611;48.602;9.490;2023-06-24T12:26:16;97580;;;27.9;47.5
68628;BME280;55611;48.602;9.490;2023-06-24T12:28:47;97580;;;27.9;47.5
68628;BME280;55611;48.602;9.490;2023-06-24T12:31:18;97580;;;28;47.5
68628;BME280;55611;48.602;9.490;2023-06-24T12:33:48;97580;;;28;47.5
68628;BME280;55611;48.602;9.490;2023-06-24T12:36:20;97580;;;28.1;47.5
68628;BME280;55611;48.602;9.490;2023-06-24T12:38:50;97570;;;28.1;47.5
68628;BME280;55611;48.602;9.490;2023-06-24T12:41:21;97580;;;28.2;47.5
68628;BME280;55611;48.602;9.490;2023-06-24T12:43:51;97580;;;28.2;47.5
68628;BME280;55611;48.602;9.490;2023-06-24T12:46:22;97560;;;28.1;47.5
68628;BME280;55611;48.602;9.490;2023-06-24T12:48:53;97570;;;28.1;47.5
68628;BME280;55611;48.602;9.490;2023-06-24T12:51:24;97570;;;28.2;47.5
68628;BME280;55611;48.602;9.490;2023-06-24T12:53:55;97570;;;28.1;47.5
68628;BME280;55611;48.602;9.490;2023-06-24T12:56:25;97570;;;27.9;47.5
68628;BME280;55611;48.602;9.490;2023-06-24T12:58:56;97570;;;27.7;47.5
68628;BME280;55611;48.602;9.490;2023-06-24T13:01:27;97570;;;27.6;47.5
68628;BME280;55611;48.602;9.490;2023-06-24T13:03:58;97560;;;27.6;47.5
68628;BME280;55611;48.602;9.490;2023-06-24T13:06:28;97560;;;27.8;47.5
68628;BME280;55611;48.602;9.490;2023-06-24T13:08:59;97560;;;27.8;47.5
68628;BME280;55611;48.602;9.490;2023-06-24T13:11:30;97550;;;28;47.5
68628;BME280;55611;48.602;9.490;2023-06-24T13:14:01;97560;;;28.1;47
68628;BME280;55611;48.602;9.490;2023-06-24T13:16:32;97550;;;28.3;47
68628;BME280;55611;48.602;9.490;2023-06-24T13:19:03;97550;;;28.4;47
68628;BME280;55611;48.602;9.490;2023-06-24T13:21:33;97550;;;28.5;47
68628;BME280;55611;48.602;9.490;2023-06-24T13:24:04;97550;;;28.6;47
68628;BME280;55611;48.602;9.490;2023-06-24T13:26:35;97550;;;28.7;47
68628;BME280;55611;48.602;9.490;2023-06-24T13:29:05;97540;;;28.8;46.5
68628;BME280;55611;48.602;9.490;2023-06-24T13:31:36;97540;;;28.9;46.5
68628;BME280;55611;48.602;9.490;2023-06-24T13:34:07;97540;;;29;46.5
68628;BME280;55611;48.602;9.490;2023-06-24T13:36:39;97540;;;29;46.5
68628;BME280;55611;48.602;9.490;2023-06-24T13:39:09;97550;;;28.8;46.5
68628;BME280;55611;48.602;9.490;2023-06-24T13:41:39;97540;;;28.4;46.5
68628;BME280;55611;48.602;9.490;2023-06-24T13:44:10;97540;;;28.3;47
68628;BME280;55611;48.602;9.490;2023-06-24T13:46:41;97540;;;28.4;46.5
68628;BME280;55611;48.602;9.490;2023-06-24T13:49:12;97530;;;28.5;46.5
68628;BME280;55611;48.602;9.490;2023-06-24T13:51:42;97530;;;28.5;46.5
68628;BME280;55611;48.602;9.490;2023-06-24T13:54:13;97520;;;28.4;46.5
68628;BME280;55611;48.602;9.490;2023-06-24T13:56:44;97520;;;28.4;46.5
68628;BME280;55611;48.602;9.490;2023-06-24T13:59:15;97520;;;28.5;46.5
68628;BME280;55611;48.602;9.490;2023-06-24T14:01:45;97520;;;28.6;46.5
68628;BME280;55611;48.602;9.490;2023-06-24T14:04:16;97530;;;28.7;46.5
68628;BME280;55611;48.602;9.490;2023-06-24T14:06:47;97520;;;28.7;46.5
68628;BME280;55611;48.602;9.490;2023-06-24T14:09:18;97520;;;28.9;46.5
68628;BME280;55611;48.602;9.490;2023-06-24T14:11:49;97520;;;28.9;46.5
68628;BME280;55611;48.602;9.490;2023-06-24T14:14:19;97520;;;28.8;46.5
68628;BME280;55611;48.602;9.490;2023-06-24T14:16:50;97520;;;28.8;46.5
68628;BME280;55611;48.602;9.490;2023-06-24T14:19:21;97510;;;28.8;46.5
68628;BME280;55611;48.602;9.490;2023-06-24T14:21:52;97510;;;28.7;46.5
68628;BME280;55611;48.602;9.490;2023-06-24T14:24:23;97510;;;28.6;46
68628;BME280;55611;48.602;9.490;2023-06-24T14:26:53;97510;;;28.6;46.5
68628;BME280;55611;48.602;9.490;2023-06-24T14:29:24;97500;;;28.5;46.5
68628;BME280;55611;48.602;9.490;2023-06-24T14:31:55;97500;;;28.6;46.5
68628;BME280;55611;48.602;9.490;2023-06-24T14:34:26;97500;;;28.6;46.5
68628;BME280;55611;48.602;9.490;2023-06-24T14:36:56;97490;;;28.7;46.5
68628;BME280;55611;48.602;9.490;2023-06-24T14:39:27;97490;;;28.8;46